Arlington, NC

10:48 PM EDT on May 06, 2015 (GMT -0400)
West Main Street | | Change Station
CLOSE
Current Station
Personal Weather Station
Location: Elkin, NC
Elevation: 938 ft
Nearby Weather Stations

Elev 938 ft 36.24 °N, 80.86 °W | Updated 5 minutes ago

Partly Cloudy
Partly Cloudy
65.3 °F
Feels Like 65.3 °F
N
0.0
Wind Variable Wind from West

Today
High -- | Low -- °F
--% Chance of Precip.
Yesterday
High -- | Low -- °F
Precip. -- in
6:25 AM 8:14 PM
Waning Gibbous, 91% visible
Pressure 30.23 in
Visibility 10.0 miles
Clouds Clear
Dew Point 61 °F
Humidity 86%
Rainfall 0.00 in
Snow Depth Not available.
UV 0 out of 12
Pollen 9.30 out of 12
Air Quality Not available.
Flu Activity No Activity
METAR KUKF 070235Z AUTO 04004KT 10SM CLR 17/14 A3023 RMK AO2

More Conditions Fewer Conditions

Pressure 30.23 in
Visibility 10.0 miles
Clouds Clear
Dew Point 61 °F
Humidity 86%
Rainfall 0.00 in
Snow Depth Not available.
UV 0 out of 12
Pollen 9.30 out of 12
Air Quality Not available.
Flu Activity No Activity
METAR KUKF 070235Z AUTO 04004KT 10SM CLR 17/14 A3023 RMK AO2

More Conditions Fewer Conditions

10-Day Weather Forecast

Almanac

Astronomy

May. 06, 2015 Rise Set
Actual Time
Civil Twilight
Nautical Twilight
Astronomical Twilight
Moon
Length of Visible Light
Length of Day
Tomorrow will be .
, % of the Moon is Illuminated

Today's Extremes

State Highs State Lows

Community

WunderPhotos

Upload Photos

1,819,088 photos uploaded!

WunderBlogs® & News

Nearby

Air Quality

  Air Quality AQ Index Pollutant
Not available.

Snow Depth

Station Depth Elevation

Earthquake Activity

City Distance Mag. Time & Date
Minimum magnitude displayed is 2.5.

Coastal Water Temperatures

Place Temperature

Stations

Nearby Weather Stations

Station Location Temp. Windchill Dew Point Humidity Wind Precip. Elev Updated Type